sensor_id;sensor_type;location;lat;lon;timestamp;pressure;altitude;pressure_sealevel;temperature;humidity
9035;BME280;4552;43.422;24.592;2023-03-15T00:22:54;98750.97;;;5.84;71.01
9035;BME280;4552;43.422;24.592;2023-03-15T00:25:21;98744.03;;;5.84;71.95
9035;BME280;4552;43.422;24.592;2023-03-15T00:27:48;98736.16;;;5.90;71.34
9035;BME280;4552;43.422;24.592;2023-03-15T00:30:15;98738.81;;;5.86;71.17
9035;BME280;4552;43.422;24.592;2023-03-15T00:32:42;98730.25;;;5.78;71.84
9035;BME280;4552;43.422;24.592;2023-03-15T00:35:10;98723.44;;;5.69;72.58
9035;BME280;4552;43.422;24.592;2023-03-15T00:37:37;98722.81;;;5.52;73.98
9035;BME280;4552;43.422;24.592;2023-03-15T00:40:07;98722.63;;;5.66;73.10
9035;BME280;4552;43.422;24.592;2023-03-15T00:42:34;98709.84;;;5.51;74.71
9035;BME280;4552;43.422;24.592;2023-03-15T00:45:01;98703.84;;;5.50;74.92
9035;BME280;4552;43.422;24.592;2023-03-15T00:47:28;98706.38;;;5.53;75.11
9035;BME280;4552;43.422;24.592;2023-03-15T00:49:55;98711.63;;;5.49;75.00
9035;BME280;4552;43.422;24.592;2023-03-15T00:52:22;98704.63;;;5.54;74.64
9035;BME280;4552;43.422;24.592;2023-03-15T00:54:52;98715.91;;;5.51;74.00
9035;BME280;4552;43.422;24.592;2023-03-15T00:57:20;98719.59;;;5.33;74.47
9035;BME280;4552;43.422;24.592;2023-03-15T00:59:47;98718.03;;;5.22;75.34
9035;BME280;4552;43.422;24.592;2023-03-15T01:02:14;98718.16;;;5.10;76.70
9035;BME280;4552;43.422;24.592;2023-03-15T01:04:41;98717.22;;;5.15;75.78
9035;BME280;4552;43.422;24.592;2023-03-15T01:07:08;98716.41;;;5.15;76.09
9035;BME280;4552;43.422;24.592;2023-03-15T01:09:36;98725.72;;;5.29;76.35
9035;BME280;4552;43.422;24.592;2023-03-15T01:12:03;98709.81;;;5.54;74.96
9035;BME280;4552;43.422;24.592;2023-03-15T01:14:32;98708.13;;;5.51;74.60
9035;BME280;4552;43.422;24.592;2023-03-15T01:17:01;98704.44;;;5.67;74.14
9035;BME280;4552;43.422;24.592;2023-03-15T01:19:28;98713.78;;;5.79;74.52
9035;BME280;4552;43.422;24.592;2023-03-15T01:21:55;98718.16;;;5.75;74.62
9035;BME280;4552;43.422;24.592;2023-03-15T01:24:22;98707.81;;;5.72;75.04
9035;BME280;4552;43.422;24.592;2023-03-15T01:26:49;98695.84;;;5.64;74.52
9035;BME280;4552;43.422;24.592;2023-03-15T01:29:16;98701.72;;;5.75;74.75
9035;BME280;4552;43.422;24.592;2023-03-15T01:31:44;98696.66;;;5.66;74.50
9035;BME280;4552;43.422;24.592;2023-03-15T01:34:11;98692.66;;;5.45;75.48
9035;BME280;4552;43.422;24.592;2023-03-15T01:36:38;98705.56;;;5.48;75.59
9035;BME280;4552;43.422;24.592;2023-03-15T01:39:05;98694.34;;;5.46;75.81
9035;BME280;4552;43.422;24.592;2023-03-15T01:41:32;98692.72;;;5.39;75.78
9035;BME280;4552;43.422;24.592;2023-03-15T01:43:59;98683.34;;;5.27;76.13
9035;BME280;4552;43.422;24.592;2023-03-15T01:46:27;98685.88;;;5.32;76.39
9035;BME280;4552;43.422;24.592;2023-03-15T01:49:04;98682.28;;;5.45;76.11
9035;BME280;4552;43.422;24.592;2023-03-15T01:51:35;98688.50;;;5.30;76.25
9035;BME280;4552;43.422;24.592;2023-03-15T01:54:07;98686.69;;;5.38;75.92
9035;BME280;4552;43.422;24.592;2023-03-15T01:56:36;98694.56;;;5.31;76.60
9035;BME280;4552;43.422;24.592;2023-03-15T01:59:11;98692.84;;;5.30;76.70
9035;BME280;4552;43.422;24.592;2023-03-15T02:01:41;98680.88;;;5.18;76.90
9035;BME280;4552;43.422;24.592;2023-03-15T02:04:20;98683.66;;;5.03;78.47
9035;BME280;4552;43.422;24.592;2023-03-15T02:06:50;98686.31;;;5.00;78.54
9035;BME280;4552;43.422;24.592;2023-03-15T02:09:26;98695.66;;;5.12;78.67
9035;BME280;4552;43.422;24.592;2023-03-15T02:11:56;98688.75;;;5.12;77.80
9035;BME280;4552;43.422;24.592;2023-03-15T02:14:23;98687.34;;;4.86;79.79
9035;BME280;4552;43.422;24.592;2023-03-15T02:16:50;98689.94;;;4.87;79.93
9035;BME280;4552;43.422;24.592;2023-03-15T02:19:29;98688.16;;;4.88;79.58
9035;BME280;4552;43.422;24.592;2023-03-15T04:21:15;98658.81;;;4.04;85.18
9035;BME280;4552;43.422;24.592;2023-03-15T04:23:47;98659.78;;;3.93;85.64
9035;BME280;4552;43.422;24.592;2023-03-15T04:26:14;98673.47;;;4.04;85.96
9035;BME280;4552;43.422;24.592;2023-03-15T04:28:41;98672.66;;;4.02;86.92
9035;BME280;4552;43.422;24.592;2023-03-15T04:31:09;98670.94;;;3.96;86.96
9035;BME280;4552;43.422;24.592;2023-03-15T04:33:39;98663.22;;;3.92;86.58
9035;BME280;4552;43.422;24.592;2023-03-15T04:36:06;98659.72;;;4.00;86.59
9035;BME280;4552;43.422;24.592;2023-03-15T04:38:34;98649.31;;;4.05;86.49
9035;BME280;4552;43.422;24.592;2023-03-15T04:41:01;98667.34;;;4.14;85.64
9035;BME280;4552;43.422;24.592;2023-03-15T04:43:35;98662.94;;;4.25;85.54
9035;BME280;4552;43.422;24.592;2023-03-15T04:46:02;98665.47;;;4.31;84.66
9035;BME280;4552;43.422;24.592;2023-03-15T04:48:29;98662.84;;;4.35;84.45
9035;BME280;4552;43.422;24.592;2023-03-15T04:50:56;98657.81;;;4.16;85.00
9035;BME280;4552;43.422;24.592;2023-03-15T04:53:23;98661.22;;;4.24;85.03
9035;BME280;4552;43.422;24.592;2023-03-15T04:55:51;98662.19;;;4.12;85.82
9035;BME280;4552;43.422;24.592;2023-03-15T04:58:19;98643.25;;;4.07;86.18
9035;BME280;4552;43.422;24.592;2023-03-15T05:00:46;98649.25;;;4.14;86.34
9035;BME280;4552;43.422;24.592;2023-03-15T05:03:13;98644.03;;;4.17;86.32
9035;BME280;4552;43.422;24.592;2023-03-15T05:05:39;98647.50;;;4.13;86.87
9035;BME280;4552;43.422;24.592;2023-03-15T05:08:06;98643.16;;;4.15;87.47
9035;BME280;4552;43.422;24.592;2023-03-15T05:10:33;98642.09;;;4.37;86.30
9035;BME280;4552;43.422;24.592;2023-03-15T05:13:02;98661.00;;;4.45;85.47
9035;BME280;4552;43.422;24.592;2023-03-15T05:15:29;98647.25;;;4.40;85.85
9035;BME280;4552;43.422;24.592;2023-03-15T05:17:56;98643.72;;;4.47;85.75
9035;BME280;4552;43.422;24.592;2023-03-15T05:20:23;98657.38;;;4.61;85.63
9035;BME280;4552;43.422;24.592;2023-03-15T05:38:18;98659.53;;;5.62;80.73
9035;BME280;4552;43.422;24.592;2023-03-15T05:40:51;98655.03;;;5.72;81.52
9035;BME280;4552;43.422;24.592;2023-03-15T05:43:18;98655.59;;;5.93;80.86
9035;BME280;4552;43.422;24.592;2023-03-15T05:45:45;98646.81;;;6.03;81.45
9035;BME280;4552;43.422;24.592;2023-03-15T05:48:13;98645.69;;;6.16;80.35
9035;BME280;4552;43.422;24.592;2023-03-15T05:50:41;98653.16;;;6.34;78.97
9035;BME280;4552;43.422;24.592;2023-03-15T05:53:08;98656.59;;;6.36;78.32
9035;BME280;4552;43.422;24.592;2023-03-15T05:55:37;98646.97;;;6.43;77.40
9035;BME280;4552;43.422;24.592;2023-03-15T05:58:04;98650.69;;;6.75;75.85
9035;BME280;4552;43.422;24.592;2023-03-15T06:00:31;98652.47;;;6.73;75.25
9035;BME280;4552;43.422;24.592;2023-03-15T06:02:58;98649.34;;;6.99;74.04
9035;BME280;4552;43.422;24.592;2023-03-15T06:05:26;98657.59;;;6.76;75.71
9035;BME280;4552;43.422;24.592;2023-03-15T06:07:52;98655.69;;;6.86;74.94
9035;BME280;4552;43.422;24.592;2023-03-15T06:10:20;98658.81;;;7.01;74.18
9035;BME280;4552;43.422;24.592;2023-03-15T06:48:15;98657.66;;;6.26;74.09
9035;BME280;4552;43.422;24.592;2023-03-15T06:50:42;98646.94;;;6.44;74.63
9035;BME280;4552;43.422;24.592;2023-03-15T06:53:09;98640.78;;;6.48;73.90
9035;BME280;4552;43.422;24.592;2023-03-15T06:55:36;98642.34;;;6.58;73.27
9035;BME280;4552;43.422;24.592;2023-03-15T06:58:02;98641.94;;;6.79;71.24
9035;BME280;4552;43.422;24.592;2023-03-15T07:00:29;98654.19;;;7.16;70.32
9035;BME280;4552;43.422;24.592;2023-03-15T07:02:56;98647.66;;;7.38;69.54
9035;BME280;4552;43.422;24.592;2023-03-15T07:05:25;98652.78;;;7.41;68.82
9035;BME280;4552;43.422;24.592;2023-03-15T07:07:52;98652.53;;;7.53;68.74
9035;BME280;4552;43.422;24.592;2023-03-15T07:10:19;98657.75;;;7.89;67.49
9035;BME280;4552;43.422;24.592;2023-03-15T07:12:46;98651.38;;;8.01;66.85
9035;BME280;4552;43.422;24.592;2023-03-15T07:15:13;98651.25;;;8.07;66.94
9035;BME280;4552;43.422;24.592;2023-03-15T07:17:40;98650.56;;;8.67;65.97
9035;BME280;4552;43.422;24.592;2023-03-15T07:20:08;98658.84;;;8.51;65.13
9035;BME280;4552;43.422;24.592;2023-03-15T07:22:36;98646.59;;;8.53;64.84
9035;BME280;4552;43.422;24.592;2023-03-15T07:25:04;98643.63;;;8.66;64.09
9035;BME280;4552;43.422;24.592;2023-03-15T07:27:32;98643.56;;;8.69;64.34
9035;BME280;4552;43.422;24.592;2023-03-15T07:29:58;98633.69;;;8.79;64.34
9035;BME280;4552;43.422;24.592;2023-03-15T07:32:25;98640.25;;;9.24;62.71
9035;BME280;4552;43.422;24.592;2023-03-15T07:34:52;98637.03;;;9.15;60.86
9035;BME280;4552;43.422;24.592;2023-03-15T07:37:22;98630.75;;;8.91;61.21
9035;BME280;4552;43.422;24.592;2023-03-15T07:39:51;98642.13;;;9.48;60.62
9035;BME280;4552;43.422;24.592;2023-03-15T07:42:17;98647.84;;;9.61;60.62
9035;BME280;4552;43.422;24.592;2023-03-15T07:44:44;98640.00;;;9.32;61.01
9035;BME280;4552;43.422;24.592;2023-03-15T07:47:11;98652.16;;;9.33;60.72
9035;BME280;4552;43.422;24.592;2023-03-15T10:50:10;98598.81;;;12.47;49.28
9035;BME280;4552;43.422;24.592;2023-03-15T10:52:44;98595.00;;;12.54;49.93
9035;BME280;4552;43.422;24.592;2023-03-15T10:55:14;98597.53;;;12.96;49.71
9035;BME280;4552;43.422;24.592;2023-03-15T10:57:50;98593.56;;;12.67;50.80
9035;BME280;4552;43.422;24.592;2023-03-15T11:00:26;98594.41;;;12.48;50.03
9035;BME280;4552;43.422;24.592;2023-03-15T11:03:05;98599.00;;;12.83;49.83
9035;BME280;4552;43.422;24.592;2023-03-15T11:05:40;98601.28;;;12.50;50.18
9035;BME280;4552;43.422;24.592;2023-03-15T11:08:11;98594.34;;;12.69;50.06
9035;BME280;4552;43.422;24.592;2023-03-15T11:10:40;98583.81;;;13.09;49.02
9035;BME280;4552;43.422;24.592;2023-03-15T13:49:50;98545.88;;;13.87;45.84
9035;BME280;4552;43.422;24.592;2023-03-15T13:56:28;98564.63;;;13.44;46.73
9035;BME280;4552;43.422;24.592;2023-03-15T14:22:46;98593.53;;;13.98;46.23
9035;BME280;4552;43.422;24.592;2023-03-15T14:25:21;98576.50;;;13.88;46.21
9035;BME280;4552;43.422;24.592;2023-03-15T14:27:50;98573.72;;;13.91;46.41
9035;BME280;4552;43.422;24.592;2023-03-15T14:30:17;98583.22;;;13.94;46.15
9035;BME280;4552;43.422;24.592;2023-03-15T14:32:51;98578.97;;;13.91;45.84
9035;BME280;4552;43.422;24.592;2023-03-15T14:35:21;98577.16;;;13.93;45.88
9035;BME280;4552;43.422;24.592;2023-03-15T14:38:01;98579.59;;;13.79;46.09
9035;BME280;4552;43.422;24.592;2023-03-15T14:40:30;98572.09;;;13.89;45.76
9035;BME280;4552;43.422;24.592;2023-03-15T14:43:00;98568.50;;;13.73;46.32
9035;BME280;4552;43.422;24.592;2023-03-15T18:04:56;98715.28;;;10.59;64.79
9035;BME280;4552;43.422;24.592;2023-03-15T18:07:23;98721.91;;;10.69;66.02
9035;BME280;4552;43.422;24.592;2023-03-15T18:09:53;98715.25;;;10.85;64.17
9035;BME280;4552;43.422;24.592;2023-03-15T18:12:20;98720.47;;;10.85;63.48
9035;BME280;4552;43.422;24.592;2023-03-15T18:14:47;98717.31;;;10.75;63.77
9035;BME280;4552;43.422;24.592;2023-03-15T18:17:14;98715.97;;;10.64;64.15
9035;BME280;4552;43.422;24.592;2023-03-15T18:19:41;98715.75;;;10.96;64.84
9035;BME280;4552;43.422;24.592;2023-03-15T18:22:13;98718.06;;;10.79;63.55
9035;BME280;4552;43.422;24.592;2023-03-15T18:24:41;98718.69;;;10.61;64.32
9035;BME280;4552;43.422;24.592;2023-03-15T18:27:08;98731.06;;;10.56;64.45
9035;BME280;4552;43.422;24.592;2023-03-15T18:29:35;98726.25;;;10.43;64.23
9035;BME280;4552;43.422;24.592;2023-03-15T18:32:03;98737.09;;;10.31;65.13
9035;BME280;4552;43.422;24.592;2023-03-15T18:34:30;98723.16;;;10.31;65.38
9035;BME280;4552;43.422;24.592;2023-03-15T18:36:56;98733.97;;;10.20;67.01
9035;BME280;4552;43.422;24.592;2023-03-15T18:39:25;98733.19;;;10.17;67.95
9035;BME280;4552;43.422;24.592;2023-03-15T18:41:52;98727.09;;;10.16;68.07
9035;BME280;4552;43.422;24.592;2023-03-15T18:44:21;98736.34;;;10.28;68.11
9035;BME280;4552;43.422;24.592;2023-03-15T18:46:47;98740.22;;;10.15;68.44
9035;BME280;4552;43.422;24.592;2023-03-15T18:49:14;98737.09;;;10.04;68.79
9035;BME280;4552;43.422;24.592;2023-03-15T18:51:41;98740.38;;;10.10;68.29
9035;BME280;4552;43.422;24.592;2023-03-15T18:54:08;98742.34;;;10.02;69.04
9035;BME280;4552;43.422;24.592;2023-03-15T18:56:37;98744.97;;;10.02;69.19
9035;BME280;4552;43.422;24.592;2023-03-15T18:59:04;98742.25;;;10.07;69.45
9035;BME280;4552;43.422;24.592;2023-03-15T19:01:31;98735.31;;;10.04;69.11
9035;BME280;4552;43.422;24.592;2023-03-15T19:03:57;98738.09;;;9.98;69.23
9035;BME280;4552;43.422;24.592;2023-03-15T21:10:40;98874.94;;;9.97;66.81
9035;BME280;4552;43.422;24.592;2023-03-15T21:13:34;98867.44;;;9.85;67.01
9035;BME280;4552;43.422;24.592;2023-03-15T21:23:10;98858.03;;;9.78;66.64
9035;BME280;4552;43.422;24.592;2023-03-15T21:25:39;98867.22;;;9.62;67.60
9035;BME280;4552;43.422;24.592;2023-03-15T21:28:05;98868.09;;;9.63;67.81
9035;BME280;4552;43.422;24.592;2023-03-15T21:54:19;98910.63;;;9.34;69.36
9035;BME280;4552;43.422;24.592;2023-03-15T21:56:46;98911.94;;;9.50;68.68
9035;BME280;4552;43.422;24.592;2023-03-15T21:59:13;98916.81;;;9.30;69.51
9035;BME280;4552;43.422;24.592;2023-03-15T22:01:40;98907.41;;;9.23;70.04
9035;BME280;4552;43.422;24.592;2023-03-15T22:04:07;98914.06;;;9.36;69.32
9035;BME280;4552;43.422;24.592;2023-03-15T22:06:34;98900.88;;;9.41;69.09
9035;BME280;4552;43.422;24.592;2023-03-15T22:09:01;98898.94;;;9.49;68.80
9035;BME280;4552;43.422;24.592;2023-03-15T22:11:29;98898.06;;;9.48;68.33
9035;BME280;4552;43.422;24.592;2023-03-15T22:13:56;98890.50;;;9.38;69.15
9035;BME280;4552;43.422;24.592;2023-03-15T22:16:23;98899.47;;;9.28;70.13
9035;BME280;4552;43.422;24.592;2023-03-15T22:18:50;98894.38;;;9.22;70.45
9035;BME280;4552;43.422;24.592;2023-03-15T22:21:17;98893.09;;;9.04;71.36
9035;BME280;4552;43.422;24.592;2023-03-15T22:23:44;98896.44;;;9.11;71.09
9035;BME280;4552;43.422;24.592;2023-03-15T22:26:11;98912.75;;;9.19;70.80
9035;BME280;4552;43.422;24.592;2023-03-15T22:28:39;98909.97;;;9.25;70.39
9035;BME280;4552;43.422;24.592;2023-03-15T22:31:08;98929.00;;;9.30;70.62
9035;BME280;4552;43.422;24.592;2023-03-15T22:33:36;98924.84;;;9.23;70.63
9035;BME280;4552;43.422;24.592;2023-03-15T22:36:03;98920.75;;;9.11;71.30
9035;BME280;4552;43.422;24.592;2023-03-15T22:38:31;98928.75;;;9.05;72.47
9035;BME280;4552;43.422;24.592;2023-03-15T22:41:04;98932.25;;;9.04;72.78
9035;BME280;4552;43.422;24.592;2023-03-15T22:43:32;98936.09;;;8.88;73.28
9035;BME280;4552;43.422;24.592;2023-03-15T22:46:01;98943.91;;;8.90;73.13
9035;BME280;4552;43.422;24.592;2023-03-15T22:48:29;98953.28;;;8.98;74.53
9035;BME280;4552;43.422;24.592;2023-03-15T22:50:57;98952.66;;;8.87;74.62
